Time;durP1;ratioP1;P1;durP2;ratioP2;P2;SDS_P1;SDS_P2;PMS_P1;PMS_P2;Temp;Humidity;BMP_temperature;BMP_pressure;BME280_temperature;BME280_humidity;BME280_pressure;Samples;Min_cycle;Max_cycle;Signal;HPM_P1;HPM_P2
2022/03/08 00:00:34;;;;;;;61.80;37.00;;;;;;;-0.30;65.37;101239.80;108139;1284;23055;-79
2022/03/08 00:03:11;;;;;;;53.20;33.70;;;;;;;-0.35;65.37;101237.61;108208;1283;22011;-79
2022/03/08 00:05:43;;;;;;;55.70;34.00;;;;;;;-0.38;65.54;101239.16;107979;1283;22908;-79
2022/03/08 00:08:14;;;;;;;58.80;35.90;;;;;;;-0.39;65.68;101239.52;107775;1284;22013;-79
2022/03/08 00:10:46;;;;;;;59.60;34.30;;;;;;;-0.39;65.78;101241.63;107937;1285;23642;-80
2022/03/08 00:13:21;;;;;;;54.30;34.60;;;;;;;-0.40;66.02;101237.84;107818;1287;21998;-79
2022/03/08 00:15:57;;;;;;;61.70;36.30;;;;;;;-0.40;66.04;101235.63;107096;1293;22031;-80
2022/03/08 00:18:27;;;;;;;60.30;35.20;;;;;;;-0.42;66.03;101237.29;107269;1291;23034;-82
2022/03/08 00:21:07;;;;;;;62.20;37.80;;;;;;;-0.46;65.92;101237.98;107083;1293;23128;-79
2022/03/08 00:23:43;;;;;;;59.80;35.50;;;;;;;-0.51;65.98;101238.71;107110;1293;22112;-79
2022/03/08 00:26:15;;;;;;;51.00;33.80;;;;;;;-0.55;66.02;101238.08;106903;1292;24192;-81
2022/03/08 00:28:48;;;;;;;54.90;35.10;;;;;;;-0.59;66.04;101233.79;106561;1298;22029;-80
2022/03/08 00:31:19;;;;;;;54.10;33.60;;;;;;;-0.65;66.00;101234.21;106622;1292;23080;-79
2022/03/08 00:33:49;;;;;;;56.60;34.80;;;;;;;-0.71;66.01;101238.68;106994;1290;22307;-79
2022/03/08 00:36:21;;;;;;;52.50;33.30;;;;;;;-0.79;66.03;101239.55;107608;1281;22095;-78
2022/03/08 00:38:53;;;;;;;51.20;33.20;;;;;;;-0.87;66.12;101240.33;108056;1276;22087;-79
2022/03/08 00:41:31;;;;;;;60.50;37.00;;;;;;;-0.96;66.46;101239.85;108420;1276;22445;-78
2022/03/08 00:44:05;;;;;;;55.80;34.20;;;;;;;-1.02;66.70;101239.60;108458;1273;21994;-81
2022/03/08 00:46:45;;;;;;;67.40;38.60;;;;;;;-1.05;66.91;101244.59;108663;1273;21988;-79
2022/03/08 00:49:18;;;;;;;64.50;40.80;;;;;;;-1.06;67.05;101246.40;108632;1274;22001;-81
2022/03/08 00:51:48;;;;;;;63.70;39.60;;;;;;;-1.07;67.35;101244.51;108401;1273;236067;-80
2022/03/08 00:54:20;;;;;;;69.90;41.30;;;;;;;-1.08;67.15;101241.61;108696;1273;22063;-81
2022/03/08 00:56:55;;;;;;;75.40;44.10;;;;;;;-1.10;67.11;101240.52;108669;1273;22275;-81
2022/03/08 00:59:25;;;;;;;72.30;43.20;;;;;;;-1.12;67.23;101242.35;108660;1273;23617;-81
2022/03/08 01:01:59;;;;;;;78.50;43.90;;;;;;;-1.14;67.36;101241.75;108730;1273;21990;-81
2022/03/08 01:04:32;;;;;;;69.10;43.50;;;;;;;-1.14;67.40;101239.14;108376;1273;22304;-79
2022/03/08 01:07:07;;;;;;;75.00;44.20;;;;;;;-1.14;67.56;101247.80;108407;1273;21975;-79
2022/03/08 01:09:37;;;;;;;74.70;45.90;;;;;;;-1.14;67.65;101248.68;108611;1275;23739;-79
2022/03/08 01:12:12;;;;;;;76.00;45.90;;;;;;;-1.17;67.56;101254.69;108649;1273;22461;-80
2022/03/08 01:14:44;;;;;;;81.10;50.60;;;;;;;-1.19;67.58;101261.16;108476;1273;22319;-78
2022/03/08 01:17:14;;;;;;;82.50;50.40;;;;;;;-1.21;67.71;101263.13;108022;1279;22072;-79
2022/03/08 01:19:52;;;;;;;81.00;50.30;;;;;;;-1.23;67.74;101267.02;108188;1278;22010;-78
2022/03/08 01:22:32;;;;;;;86.70;52.30;;;;;;;-1.24;67.84;101270.04;108382;1278;23020;-79
2022/03/08 01:25:09;;;;;;;;;;;;;;;-1.26;67.86;101274.62;108207;1279;21976;-79
2022/03/08 01:27:41;;;;;;;94.30;52.10;;;;;;;-1.34;67.97;101271.35;108421;1279;22017;-79
2022/03/08 01:30:33;;;;;;;92.50;51.90;;;;;;;-1.38;68.05;101271.50;108761;1273;22683;-79
2022/03/08 01:33:03;;;;;;;92.30;50.10;;;;;;;-1.37;68.12;101269.77;108498;1273;21989;-79
2022/03/08 01:35:42;;;;;;;84.80;50.80;;;;;;;-1.36;68.25;101267.80;108423;1276;22999;-79
2022/03/08 01:38:19;;;;;;;91.70;52.80;;;;;;;-1.33;68.35;101263.52;108464;1273;22760;-78
2022/03/08 01:40:55;;;;;;;86.90;48.10;;;;;;;-1.31;68.40;101257.58;108673;1275;23140;-79
2022/03/08 01:43:32;;;;;;;81.90;46.60;;;;;;;-1.30;68.45;101251.11;108678;1273;23688;-80
2022/03/08 01:46:02;;;;;;;79.80;49.10;;;;;;;-1.28;68.57;101248.77;108732;1274;22053;-78
2022/03/08 01:48:52;;;;;;;84.30;49.60;;;;;;;-1.26;68.59;101243.83;108669;1273;22295;-80
2022/03/08 01:51:24;;;;;;;;;;;;;;;-1.26;68.47;101242.10;108467;1273;21989;-79
2022/03/08 01:53:59;;;;;;;76.00;44.70;;;;;;;-1.33;68.49;101237.42;108459;1275;22582;-80
2022/03/08 01:56:30;;;;;;;76.80;43.70;;;;;;;-1.36;68.51;101234.98;108452;1273;23043;-78
2022/03/08 01:59:10;;;;;;;71.30;45.90;;;;;;;-1.36;68.50;101233.61;108536;1273;23056;-80
2022/03/08 02:01:41;;;;;;;61.00;43.80;;;;;;;-1.37;68.59;101232.08;108670;1272;22008;-80
2022/03/08 02:04:12;;;;;;;68.70;44.00;;;;;;;-1.36;68.71;101234.64;108431;1279;22974;-80
2022/03/08 02:06:45;;;;;;;65.80;42.50;;;;;;;-1.36;68.66;101233.25;108431;1278;22073;-80
2022/03/08 02:09:16;;;;;;;64.90;41.70;;;;;;;-1.37;68.63;101232.09;107738;1282;23729;-78
2022/03/08 02:11:51;;;;;;;65.20;40.30;;;;;;;-1.38;68.73;101232.27;108033;1277;22782;-79
2022/03/08 02:14:32;;;;;;;60.90;40.10;;;;;;;-1.37;68.80;101232.44;108172;1277;22001;-79
2022/03/08 02:17:05;;;;;;;62.60;41.70;;;;;;;-1.37;68.84;101231.39;108054;1277;23067;-79
2022/03/08 02:19:40;;;;;;;59.60;37.10;;;;;;;-1.36;68.94;101231.35;108569;1276;23669;-80
2022/03/08 02:22:20;;;;;;;59.50;38.80;;;;;;;-1.34;69.02;101229.73;107891;1275;23253;-80
2022/03/08 02:25:14;;;;;;;61.20;38.00;;;;;;;-1.33;69.09;101227.40;108566;1275;22307;-80
2022/03/08 02:27:54;;;;;;;56.80;38.40;;;;;;;-1.30;69.19;101227.98;108846;1273;23136;-80
2022/03/08 02:30:32;;;;;;;62.80;39.20;;;;;;;-1.27;69.28;101227.12;108895;1272;23052;-79
2022/03/08 02:33:27;;;;;;;58.60;37.10;;;;;;;-1.22;69.32;101223.45;108689;1273;23756;-80
2022/03/08 02:36:11;;;;;;;64.30;36.70;;;;;;;-1.18;69.42;101226.20;108563;1276;21984;-80
2022/03/08 02:39:03;;;;;;;60.30;38.10;;;;;;;-1.14;69.52;101228.28;108273;1280;23697;-79
2022/03/08 02:41:40;;;;;;;56.70;35.90;;;;;;;-1.10;69.46;101230.52;107759;1287;22951;-80
2022/03/08 02:44:30;;;;;;;61.10;37.10;;;;;;;-1.06;69.56;101231.88;107531;1289;22315;-79
2022/03/08 02:47:13;;;;;;;54.90;36.40;;;;;;;-1.01;69.71;101237.12;107349;1290;23638;-80
2022/03/08 02:49:50;;;;;;;52.00;32.80;;;;;;;-0.94;69.75;101236.16;107344;1290;23622;-80
2022/03/08 02:52:34;;;;;;;52.80;32.70;;;;;;;-0.87;69.99;101235.09;107497;1289;23883;-78
2022/03/08 02:55:26;;;;;;;;;;;;;;;;;;;;;
2022/03/08 02:58:00;;;;;;;49.50;30.00;;;;;;;-0.72;70.02;101231.77;107856;1283;23851;-79
2022/03/08 03:00:34;;;;;;;43.90;29.70;;;;;;;-0.64;70.05;101232.29;107747;1283;22488;-80
2022/03/08 03:03:23;;;;;;;;;;;;;;;;;;;;;
2022/03/08 03:06:06;;;;;;;49.00;28.90;;;;;;;-0.53;69.92;101228.81;108215;1281;23097;-80
2022/03/08 03:08:57;;;;;;;48.00;30.10;;;;;;;-0.48;69.99;101231.30;108450;1276;22003;-80
2022/03/08 03:11:41;;;;;;;42.50;27.20;;;;;;;-0.42;69.88;101232.77;108601;1276;22011;-79
2022/03/08 03:14:21;;;;;;;46.30;27.50;;;;;;;-0.37;69.87;101238.75;108560;1276;21996;-80
2022/03/08 03:17:04;;;;;;;41.90;25.90;;;;;;;-0.31;69.89;101240.19;108598;1276;22000;-81
2022/03/08 03:19:37;;;;;;;42.30;25.10;;;;;;;-0.28;69.90;101242.78;108604;1276;22879;-79
2022/03/08 03:22:06;;;;;;;34.20;21.60;;;;;;;-0.24;69.83;101247.98;108059;1282;22022;-79
2022/03/08 03:24:36;;;;;;;33.40;21.60;;;;;;;-0.21;69.85;101256.98;108126;1276;24363;-79
2022/03/08 03:27:15;;;;;;;39.60;21.40;;;;;;;-0.17;69.88;101256.61;108498;1273;22188;-78
2022/03/08 03:29:56;;;;;;;30.90;19.70;;;;;;;-0.12;69.96;101253.77;108667;1273;21982;-80
2022/03/08 03:32:34;;;;;;;30.20;19.70;;;;;;;-0.09;69.90;101247.39;108759;1273;21990;-78
2022/03/08 03:35:12;;;;;;;30.10;19.00;;;;;;;-0.05;70.08;101258.05;108465;1272;22032;-79
2022/03/08 03:37:43;;;;;;;28.20;18.10;;;;;;;-0.01;70.07;101263.09;108781;1273;23656;-77
2022/03/08 03:40:29;;;;;;;28.00;18.50;;;;;;;0.02;70.04;101264.48;108706;1273;21995;-78
2022/03/08 03:43:18;;;;;;;;;;;;;;;;;;;;;
2022/03/08 03:46:11;;;;;;;;;;;;;;;;;;;;;
2022/03/08 03:48:41;;;;;;;28.40;16.80;;;;;;;0.11;70.12;101281.17;108888;1267;23653;-79
2022/03/08 03:51:32;;;;;;;26.50;17.60;;;;;;;0.14;70.15;101281.55;108528;1273;22000;-80
2022/03/08 03:54:13;;;;;;;24.90;16.50;;;;;;;0.18;70.17;101286.55;108706;1273;22391;-79
2022/03/08 03:56:49;;;;;;;26.10;16.00;;;;;;;0.22;70.18;101289.30;108867;1273;23067;-79
2022/03/08 03:59:28;;;;;;;28.80;17.50;;;;;;;0.27;70.11;101293.73;108476;1273;23738;-79
2022/03/08 04:02:43;;;;;;;25.60;16.40;;;;;;;0.30;70.11;101289.08;108685;1273;23081;-78
2022/03/08 04:05:39;;;;;;;29.10;17.40;;;;;;;0.33;70.15;101290.64;108547;1278;23055;-79
2022/03/08 04:08:20;;;;;;;37.80;21.90;;;;;;;0.36;70.07;101295.67;108513;1278;23114;-79
2022/03/08 04:11:13;;;;;;;25.80;19.10;;;;;;;0.40;70.06;101296.17;108377;1278;23472;-79
2022/03/08 04:14:00;;;;;;;31.80;18.00;;;;;;;0.42;70.00;101295.86;108314;1278;22001;-78
2022/03/08 04:16:53;;;;;;;28.10;18.10;;;;;;;0.45;70.01;101297.95;107857;1283;23866;-80
2022/03/08 04:19:36;;;;;;;28.20;18.80;;;;;;;0.48;69.95;101297.84;107457;1290;23730;-77
2022/03/08 04:22:09;;;;;;;25.50;17.80;;;;;;;0.51;69.92;101294.23;106454;1293;23061;-79
2022/03/08 04:24:40;;;;;;;31.00;19.30;;;;;;;0.53;69.92;101291.48;106442;1296;22049;-78
2022/03/08 04:27:29;;;;;;;;;;;;;;;;;;;;;
2022/03/08 04:30:13;;;;;;;35.20;20.10;;;;;;;0.55;69.79;101285.31;106714;1292;22044;-79
2022/03/08 04:33:06;;;;;;;31.40;20.50;;;;;;;0.55;69.82;101289.64;107128;1292;23622;-78
2022/03/08 04:35:59;;;;;;;36.40;22.10;;;;;;;0.56;69.76;101289.81;107298;1293;22729;-80
2022/03/08 04:38:54;;;;;;;29.40;18.70;;;;;;;0.56;69.74;101291.02;107267;1286;23124;-79
2022/03/08 04:41:50;;;;;;;29.10;18.60;;;;;;;0.56;69.81;101294.44;107633;1287;22016;-80
2022/03/08 04:44:21;;;;;;;25.90;17.60;;;;;;;0.56;69.69;101298.99;107780;1287;22394;-78
2022/03/08 04:46:52;;;;;;;32.80;17.50;;;;;;;0.56;69.69;101299.35;108170;1276;23765;-78
2022/03/08 04:49:31;;;;;;;25.20;17.20;;;;;;;0.58;69.84;101301.29;108657;1273;21979;-79
2022/03/08 04:52:04;;;;;;;28.60;18.60;;;;;;;0.58;69.79;101290.38;108325;1275;22114;-79
2022/03/08 04:54:43;;;;;;;30.70;19.40;;;;;;;0.59;69.77;101285.80;108407;1275;22145;-79
2022/03/08 04:57:28;;;;;;;31.70;20.50;;;;;;;0.57;69.66;101283.13;108563;1275;21992;-80
2022/03/08 05:00:04;;;;;;;30.70;18.90;;;;;;;0.55;69.68;101286.39;108220;1281;22040;-79
2022/03/08 05:03:11;;;;;;;30.60;20.10;;;;;;;0.52;69.81;101284.48;107974;1282;22804;-79
2022/03/08 05:05:47;;;;;;;34.90;22.40;;;;;;;0.45;69.80;101288.95;107837;1284;22480;-80
2022/03/08 05:08:24;;;;;;;40.60;27.80;;;;;;;0.41;69.78;101294.39;108273;1279;22172;-80
2022/03/08 05:11:15;;;;;;;39.30;26.60;;;;;;;0.37;69.82;101302.88;108298;1277;22107;-79
2022/03/08 05:14:10;;;;;;;;;;;;;;;;;;;;;
2022/03/08 05:16:59;;;;;;;;;;;;;;;;;;;;;
2022/03/08 05:19:42;;;;;;;34.40;23.80;;;;;;;0.34;69.97;101312.23;108432;1278;22010;-81
2022/03/08 05:22:24;;;;;;;40.40;25.00;;;;;;;0.37;70.05;101313.81;108340;1278;23668;-81
2022/03/08 05:25:22;;;;;;;38.40;23.20;;;;;;;0.40;70.00;101325.09;108860;1269;22457;-80
2022/03/08 05:28:11;;;;;;;29.20;20.30;;;;;;;0.41;69.88;101330.95;109187;1266;22289;-81
2022/03/08 05:31:00;;;;;;;36.80;23.80;;;;;;;0.40;70.00;101333.93;109206;1266;21981;-80
2022/03/08 05:33:32;;;;;;;31.10;22.60;;;;;;;0.42;70.03;101336.41;109083;1270;23592;-81
2022/03/08 05:36:17;;;;;;;36.10;23.80;;;;;;;0.46;70.16;101336.58;109017;1270;22794;-79
2022/03/08 05:38:57;;;;;;;42.20;30.80;;;;;;;0.49;70.08;101340.61;109100;1267;21980;-81
2022/03/08 05:41:34;;;;;;;34.90;22.40;;;;;;;0.52;70.10;101341.14;109125;1273;22001;-82
2022/03/08 05:44:10;;;;;;;37.50;25.40;;;;;;;0.56;70.17;101344.75;108330;1276;21987;-82
2022/03/08 05:46:50;;;;;;;40.00;24.90;;;;;;;0.59;70.16;101344.73;108477;1277;23718;-81
2022/03/08 05:49:46;;;;;;;45.00;25.70;;;;;;;0.61;70.03;101342.73;108597;1276;22001;-82
2022/03/08 05:52:32;;;;;;;35.60;22.70;;;;;;;0.60;70.04;101342.98;108532;1276;22004;-82
2022/03/08 05:55:08;;;;;;;39.50;25.60;;;;;;;0.61;70.10;101342.06;108558;1277;22067;-82
2022/03/08 05:57:40;;;;;;;40.00;24.10;;;;;;;0.63;70.10;101339.84;108224;1282;22659;-81
2022/03/08 06:00:21;;;;;;;40.60;23.50;;;;;;;0.66;70.07;101341.59;108016;1281;22000;-80
2022/03/08 06:02:51;;;;;;;35.10;21.70;;;;;;;0.69;69.99;101339.39;108326;1275;21992;-80
2022/03/08 06:05:22;;;;;;;33.00;23.20;;;;;;;0.70;69.99;101340.89;108460;1273;22685;-81
2022/03/08 06:07:55;;;;;;;32.50;22.00;;;;;;;0.72;69.95;101343.73;108305;1276;21985;-79
2022/03/08 06:10:27;;;;;;;34.10;22.50;;;;;;;0.73;69.91;101344.71;108361;1276;23012;-82
2022/03/08 06:12:57;;;;;;;37.30;22.40;;;;;;;0.76;70.05;101357.22;108313;1278;22005;-83
2022/03/08 06:15:30;;;;;;;41.10;23.60;;;;;;;0.80;70.00;101355.64;108421;1273;22036;-81
2022/03/08 06:18:02;;;;;;;37.90;23.20;;;;;;;0.83;69.99;101357.86;108733;1273;22070;-81
2022/03/08 06:20:45;;;;;;;36.50;24.20;;;;;;;0.88;70.01;101359.71;108387;1278;22010;-82
2022/03/08 06:23:19;;;;;;;40.90;27.90;;;;;;;0.92;69.94;101359.14;108174;1284;22021;-82
2022/03/08 06:26:17;;;;;;;54.30;34.80;;;;;;;0.93;69.94;101357.51;108545;1275;23053;-84
2022/03/08 06:29:08;;;;;;;46.10;33.00;;;;;;;0.95;69.94;101357.05;108201;1284;22004;-83
2022/03/08 06:31:41;;;;;;;54.30;32.80;;;;;;;0.97;69.97;101359.24;107943;1284;22010;-86
2022/03/08 06:34:33;;;;;;;50.20;33.00;;;;;;;0.99;69.90;101358.60;109365;1267;23725;-83
2022/03/08 06:37:03;;;;;;;49.20;31.90;;;;;;;1.03;69.85;101362.06;109425;1267;21998;-82
2022/03/08 06:39:36;;;;;;;49.50;31.50;;;;;;;1.07;69.76;101362.85;109200;1267;21975;-82
2022/03/08 06:42:12;;;;;;;50.90;32.80;;;;;;;1.13;69.72;101360.29;109435;1267;23607;-82
2022/03/08 06:44:59;;;;;;;;;;;;;;;;;;;;;
2022/03/08 06:47:38;;;;;;;39.80;26.80;;;;;;;1.25;69.57;101355.13;109058;1270;23629;-82
2022/03/08 06:50:19;;;;;;;45.00;28.20;;;;;;;1.32;69.57;101351.77;108716;1275;22245;-81
2022/03/08 06:52:52;;;;;;;46.80;32.80;;;;;;;1.38;69.43;101359.45;108684;1276;21960;-83
2022/03/08 06:56:13;;;;;;;51.10;36.30;;;;;;;1.42;69.21;101363.21;108520;1280;24430;-83
2022/03/08 06:58:20;;;;;;;46.40;33.00;;;;;;;1.48;69.18;101365.70;108262;1281;22080;-78
2022/03/08 07:00:49;;;;;;;36.00;26.60;;;;;;;1.50;68.89;101369.38;108129;1282;21998;-78
2022/03/08 07:03:21;;;;;;;37.50;25.40;;;;;;;1.49;68.63;101371.52;108149;1280;21999;-78
2022/03/08 07:05:57;;;;;;;41.60;27.90;;;;;;;1.46;68.52;101370.66;108182;1276;22030;-77
2022/03/08 07:08:39;;;;;;;39.90;31.10;;;;;;;1.43;68.47;101372.20;108576;1272;22117;-82
2022/03/08 07:11:14;;;;;;;39.10;29.30;;;;;;;1.39;68.38;101374.80;108734;1276;23785;-84
2022/03/08 07:13:58;;;;;;;44.10;30.80;;;;;;;1.42;68.64;101382.48;108940;1270;23642;-85
2022/03/08 07:16:35;;;;;;;44.90;31.00;;;;;;;1.50;68.75;101386.42;109128;1270;22045;-85
2022/03/08 07:22:19;;;;;;;37.00;28.90;;;;;;;1.65;68.70;101389.34;109054;1273;23625;-83
2022/03/08 07:25:14;;;;;;;38.20;29.40;;;;;;;1.72;68.60;101387.27;108642;1276;22019;-85
2022/03/08 07:28:09;;;;;;;41.40;26.90;;;;;;;1.79;68.42;101390.33;108781;1278;23105;-86
2022/03/08 07:31:27;;;;;;;43.80;27.60;;;;;;;1.82;68.25;101390.17;108960;1276;22023;-84
2022/03/08 07:34:08;;;;;;;39.30;26.60;;;;;;;1.85;68.37;101390.16;108884;1276;23758;-84
2022/03/08 07:37:35;;;;;;;40.50;28.00;;;;;;;1.94;68.32;101396.27;108935;1279;22466;-85
2022/03/08 07:40:40;;;;;;;31.90;23.00;;;;;;;2.01;68.24;101385.61;108574;1282;22015;-85
2022/03/08 07:43:13;;;;;;;33.20;22.80;;;;;;;2.07;68.05;101379.56;108185;1284;22006;-85
2022/03/08 07:46:15;;;;;;;38.40;23.70;;;;;;;2.11;67.90;101380.35;108340;1284;22085;-89
2022/03/08 07:56:31;;;;;;;;;;;;;;;;;;;;;
2022/03/08 07:59:22;;;;;;;42.80;26.10;;;;;;;2.21;67.57;101396.69;110263;1266;22000;-82
2022/03/08 08:02:35;;;;;;;;;;;;;;;;;;;;;
2022/03/08 08:09:58;;;;;;;;;;;;;;;;;;;;;
2022/03/08 08:17:23;;;;;;;;;;;;;;;;;;;;;
2022/03/08 08:21:12;;;;;;;;;;;;;;;;;;;;;
2022/03/08 08:46:35;;;;;;;10.60;5.60;;;;;;;4.21;62.91;101409.20;111656;1254;22110;31
2022/03/08 08:53:23;;;;;;;6.20;4.60;;;;;;;4.32;62.73;101415.45;109682;1272;21987;-85
2022/03/08 08:57:15;;;;;;;;;;;;;;;;;;;;;
2022/03/08 09:00:05;;;;;;;18.40;6.30;;;;;;;5.86;63.66;101408.98;109447;1269;23121;-85
2022/03/08 09:02:58;;;;;;;12.40;5.90;;;;;;;6.47;62.14;101406.23;109139;1272;21994;-83
2022/03/08 09:06:07;;;;;;;12.80;6.30;;;;;;;7.29;60.83;101405.67;109326;1272;23779;-86
2022/03/08 09:08:59;;;;;;;11.90;6.10;;;;;;;7.90;58.31;101414.72;109108;1273;21999;-85
2022/03/08 09:11:42;;;;;;;14.30;8.10;;;;;;;8.43;57.03;101400.92;109180;1273;23670;-84
2022/03/08 09:14:29;;;;;;;14.20;8.10;;;;;;;8.80;54.06;101394.13;108927;1276;22179;-85
2022/03/08 09:17:09;;;;;;;11.10;7.50;;;;;;;8.94;52.27;101397.45;108701;1276;22044;-84
2022/03/08 09:19:41;;;;;;;13.20;7.90;;;;;;;8.78;50.33;101396.17;108889;1276;22033;-84
2022/03/08 09:22:17;;;;;;;13.50;8.90;;;;;;;8.54;49.99;101397.33;109087;1273;22003;-84
2022/03/08 09:24:53;;;;;;;11.50;7.30;;;;;;;8.34;49.66;101397.92;109089;1275;22539;-84
2022/03/08 09:27:29;;;;;;;15.60;9.10;;;;;;;8.01;48.79;101391.00;109057;1276;21977;-85
2022/03/08 09:30:22;;;;;;;12.10;9.00;;;;;;;7.71;49.33;101392.61;108895;1276;22002;-84
2022/03/08 09:33:13;;;;;;;18.80;8.40;;;;;;;7.72;50.95;101387.53;109134;1273;23169;-83
2022/03/08 09:35:55;;;;;;;12.70;8.00;;;;;;;7.95;51.46;101388.15;109233;1273;21988;-84
2022/03/08 09:38:46;;;;;;;10.20;6.70;;;;;;;8.41;52.27;101391.05;109063;1276;22311;-85
2022/03/08 09:41:26;;;;;;;16.20;7.70;;;;;;;8.86;51.61;101395.82;108702;1281;22047;-84
2022/03/08 09:44:02;;;;;;;15.10;8.90;;;;;;;9.06;49.85;101395.17;108830;1278;22014;-85
2022/03/08 09:47:07;;;;;;;16.00;8.80;;;;;;;9.26;49.18;101388.77;108862;1278;23712;-84
2022/03/08 09:49:57;;;;;;;10.60;8.00;;;;;;;9.41;48.42;101382.46;108749;1278;22272;-85
2022/03/08 09:52:42;;;;;;;11.80;7.60;;;;;;;9.55;47.98;101383.16;108893;1278;21992;-85
2022/03/08 09:55:18;;;;;;;14.50;7.90;;;;;;;9.56;46.76;101375.33;108790;1278;22441;-83
2022/03/08 09:58:21;;;;;;;22.80;8.20;;;;;;;9.56;46.79;101372.94;109035;1275;23727;-84
2022/03/08 10:00:53;;;;;;;11.70;7.50;;;;;;;9.88;47.74;101377.95;109090;1275;22364;-84
2022/03/08 10:03:39;;;;;;;19.20;6.50;;;;;;;10.28;47.18;101376.23;109087;1275;23595;-84
2022/03/08 10:06:13;;;;;;;10.20;5.90;;;;;;;10.53;46.11;101373.86;108938;1278;22041;-85
2022/03/08 10:09:16;;;;;;;13.60;7.40;;;;;;;10.77;45.34;101370.10;108793;1278;23585;-85
2022/03/08 10:12:20;;;;;;;10.90;5.60;;;;;;;11.22;45.49;101369.35;108621;1284;22007;-85
2022/03/08 10:14:56;;;;;;;13.40;6.30;;;;;;;11.80;44.13;101367.66;108549;1283;22011;-84
2022/03/08 10:17:40;;;;;;;11.00;6.10;;;;;;;12.16;43.22;101362.30;108533;1283;22005;-83
2022/03/08 10:20:30;;;;;;;12.90;4.70;;;;;;;12.57;42.23;101361.53;108569;1283;22021;-83
2022/03/08 10:23:13;;;;;;;13.20;6.10;;;;;;;13.01;41.61;101363.03;108481;1283;23650;-84
2022/03/08 10:25:49;;;;;;;11.00;6.20;;;;;;;13.64;40.80;101362.83;109006;1275;21998;-84
2022/03/08 10:28:22;;;;;;;13.90;6.70;;;;;;;14.21;39.83;101359.55;109141;1275;22000;-85
2022/03/08 10:30:53;;;;;;;13.80;6.20;;;;;;;15.06;39.79;101353.45;109221;1270;23596;-84
2022/03/08 10:33:38;;;;;;;10.10;4.50;;;;;;;15.91;37.85;101350.86;109015;1273;21942;-84
2022/03/08 10:36:26;;;;;;;19.00;7.60;;;;;;;16.59;36.51;101344.84;108998;1273;23624;-85
2022/03/08 10:39:13;;;;;;;13.90;8.70;;;;;;;17.17;34.86;101342.14;108856;1276;22012;-85
2022/03/08 10:41:58;;;;;;;7.40;4.80;;;;;;;17.09;33.22;101339.45;108893;1278;24296;-84
2022/03/08 10:44:44;;;;;;;10.70;5.50;;;;;;;16.34;32.53;101325.60;108377;1281;22094;-84
2022/03/08 10:47:19;;;;;;;11.40;5.90;;;;;;;15.31;32.93;101319.98;108470;1282;23195;-84
2022/03/08 10:49:55;;;;;;;11.80;5.70;;;;;;;14.88;34.10;101317.77;108349;1281;22022;-83
2022/03/08 10:52:50;;;;;;;13.10;6.20;;;;;;;15.22;35.49;101317.27;108576;1278;23350;-84
2022/03/08 10:55:37;;;;;;;7.90;4.60;;;;;;;16.09;34.88;101313.67;108271;1284;22033;-83
2022/03/08 10:58:12;;;;;;;7.30;4.70;;;;;;;17.18;34.60;101307.52;108373;1284;22079;-84
2022/03/08 11:00:54;;;;;;;7.40;4.30;;;;;;;18.20;32.56;101298.02;108049;1287;22010;-84
2022/03/08 11:03:26;;;;;;;28.90;6.00;;;;;;;18.90;30.76;101292.59;107669;1291;23230;-84
2022/03/08 11:06:04;;;;;;;17.60;6.10;;;;;;;19.23;29.08;101289.92;107772;1290;21979;-84
2022/03/08 11:08:37;;;;;;;6.90;4.70;;;;;;;19.41;28.61;101289.51;107909;1287;21999;-83
2022/03/08 11:11:07;;;;;;;17.40;6.10;;;;;;;19.70;28.41;101288.71;108033;1287;23630;-84
2022/03/08 11:13:42;;;;;;;5.40;3.80;;;;;;;20.12;28.17;101287.69;107560;1293;22095;-84
2022/03/08 11:16:12;;;;;;;13.20;5.50;;;;;;;20.05;26.94;101284.27;107300;1296;21990;-85
2022/03/08 11:18:49;;;;;;;10.30;5.20;;;;;;;19.03;24.80;101282.13;106932;1298;23806;-84
2022/03/08 11:21:43;;;;;;;6.80;3.90;;;;;;;17.42;25.45;101280.09;107056;1296;23889;-83
2022/03/08 11:24:17;;;;;;;11.20;6.00;;;;;;;15.73;26.89;101274.85;106960;1298;22033;-83
2022/03/08 11:26:51;;;;;;;14.20;5.10;;;;;;;14.36;28.20;101271.95;107401;1293;22659;-83
2022/03/08 11:29:27;;;;;;;8.20;4.70;;;;;;;13.21;29.22;101270.20;107164;1294;22014;-83
2022/03/08 11:32:05;;;;;;;9.50;5.50;;;;;;;12.33;30.57;101260.47;107318;1287;22130;-83
2022/03/08 11:34:45;;;;;;;13.40;6.10;;;;;;;11.62;31.25;101256.86;108075;1283;22009;-84
2022/03/08 11:37:23;;;;;;;;;;;;;;;10.77;32.04;101250.50;108428;1278;23606;-83
2022/03/08 11:40:16;;;;;;;29.50;6.00;;;;;;;10.01;33.46;101249.88;108730;1275;21961;-83
2022/03/08 11:42:53;;;;;;;7.30;4.50;;;;;;;9.56;34.71;101244.81;108940;1275;22132;-81
2022/03/08 11:45:31;;;;;;;8.70;4.20;;;;;;;9.20;35.21;101245.61;109085;1273;22004;-82
2022/03/08 11:48:09;;;;;;;16.00;6.40;;;;;;;8.80;35.64;101239.71;109167;1273;23620;-82
2022/03/08 11:50:46;;;;;;;12.70;4.80;;;;;;;8.50;36.48;101237.08;108797;1272;21997;-83
2022/03/08 11:53:25;;;;;;;8.50;5.30;;;;;;;8.23;37.09;101236.88;108539;1278;21989;-82
2022/03/08 11:55:56;;;;;;;13.20;5.70;;;;;;;8.01;37.77;101237.73;108257;1283;23052;-82
2022/03/08 11:58:50;;;;;;;9.50;5.60;;;;;;;7.85;38.29;101233.96;107839;1287;22015;-82
2022/03/08 12:01:32;;;;;;;12.40;5.80;;;;;;;7.67;38.73;101236.55;107819;1287;22673;-82
2022/03/08 12:04:17;;;;;;;13.90;5.50;;;;;;;7.51;39.22;101236.40;107910;1287;22469;-81
2022/03/08 12:06:58;;;;;;;8.90;4.30;;;;;;;7.37;39.61;101232.98;107768;1290;22017;-83
2022/03/08 12:09:30;;;;;;;9.40;5.30;;;;;;;7.31;40.10;101226.00;107166;1293;22008;-81
2022/03/08 12:12:04;;;;;;;;;;;;;;;7.31;40.53;101225.42;107660;1289;22058;-81
2022/03/08 12:14:40;;;;;;;9.90;4.70;;;;;;;7.26;40.95;101218.13;107748;1289;23727;-81
2022/03/08 12:17:18;;;;;;;13.50;6.00;;;;;;;7.23;40.84;101218.71;107915;1287;22709;-83
2022/03/08 12:20:04;;;;;;;9.70;5.10;;;;;;;7.21;40.84;101219.05;108093;1280;22765;-82
2022/03/08 12:22:34;;;;;;;8.00;4.60;;;;;;;7.22;40.91;101219.86;108425;1279;22004;-82
2022/03/08 12:25:16;;;;;;;12.10;5.40;;;;;;;7.20;40.80;101216.52;108616;1275;24343;-81
2022/03/08 12:27:59;;;;;;;8.40;4.00;;;;;;;7.16;40.92;101217.20;108732;1273;22290;-82
2022/03/08 12:30:42;;;;;;;6.80;4.00;;;;;;;7.10;41.10;101218.23;108755;1273;21969;-81
2022/03/08 12:33:14;;;;;;;8.10;3.80;;;;;;;7.04;41.27;101217.95;108779;1273;23752;-81
2022/03/08 12:35:57;;;;;;;10.80;4.30;;;;;;;7.01;41.45;101220.52;108799;1273;21987;-81
2022/03/08 12:38:39;;;;;;;6.80;3.90;;;;;;;6.94;41.60;101229.86;108593;1278;23531;-81
2022/03/08 12:41:23;;;;;;;8.40;4.90;;;;;;;6.89;41.97;101225.84;108191;1283;21939;-82
2022/03/08 12:44:02;;;;;;;9.50;4.20;;;;;;;6.89;42.37;101229.21;107848;1287;22007;-82
2022/03/08 12:46:41;;;;;;;8.00;4.20;;;;;;;6.87;42.33;101234.90;107666;1287;23679;-82
2022/03/08 12:49:13;;;;;;;11.90;4.60;;;;;;;6.83;42.37;101229.48;107689;1287;22292;-83
2022/03/08 12:51:51;;;;;;;8.30;5.10;;;;;;;6.83;42.71;101231.95;107816;1284;205376;-82
2022/03/08 12:54:23;;;;;;;5.80;4.10;;;;;;;6.85;42.88;101238.08;108003;1284;22056;-82
2022/03/08 12:56:53;;;;;;;5.80;4.20;;;;;;;6.84;42.72;101236.71;107758;1289;22165;-81
2022/03/08 12:59:23;;;;;;;11.00;4.60;;;;;;;6.81;42.86;101233.50;107870;1283;22716;-82
2022/03/08 13:02:20;;;;;;;12.90;6.90;;;;;;;6.74;42.77;101229.46;108145;1283;23779;-83
2022/03/08 13:05:05;;;;;;;9.90;6.40;;;;;;;6.66;42.72;101227.36;108242;1283;22004;-81
2022/03/08 13:07:50;;;;;;;14.90;10.40;;;;;;;6.65;42.88;101225.71;107843;1287;22008;-81
2022/03/08 13:10:21;;;;;;;14.10;6.00;;;;;;;6.66;42.99;101221.05;108090;1283;22001;-81
2022/03/08 13:13:02;;;;;;;10.20;5.50;;;;;;;6.67;43.05;101221.46;108218;1283;22018;-82
2022/03/08 13:15:32;;;;;;;12.90;6.80;;;;;;;6.70;43.18;101222.67;107875;1284;23727;-82
2022/03/08 13:18:06;;;;;;;9.80;5.70;;;;;;;6.72;43.27;101227.04;107837;1287;22015;-82
2022/03/08 13:21:04;;;;;;;9.20;5.30;;;;;;;6.72;43.39;101225.27;107937;1284;23872;-82